sensor_id;sensor_type;location;lat;lon;timestamp;pressure;altitude;pressure_sealevel;temperature;humidity
12803;BME280;6465;42.700;23.278;2023-10-19T00:02:07;95071.59;;;7.92;95.75
12803;BME280;6465;42.700;23.278;2023-10-19T00:04:34;95061.22;;;7.90;96.00
12803;BME280;6465;42.700;23.278;2023-10-19T00:07:02;95060.22;;;7.94;95.54
12803;BME280;6465;42.700;23.278;2023-10-19T00:09:30;95053.34;;;7.92;94.46
12803;BME280;6465;42.700;23.278;2023-10-19T00:12:02;95051.00;;;7.86;95.00
12803;BME280;6465;42.700;23.278;2023-10-19T00:14:30;95057.13;;;7.85;94.98
12803;BME280;6465;42.700;23.278;2023-10-19T00:16:57;95042.75;;;7.75;94.83
12803;BME280;6465;42.700;23.278;2023-10-19T00:19:31;95047.19;;;7.73;95.82
12803;BME280;6465;42.700;23.278;2023-10-19T00:22:04;95044.59;;;7.73;96.35
12803;BME280;6465;42.700;23.278;2023-10-19T00:24:35;95037.78;;;7.69;97.06
12803;BME280;6465;42.700;23.278;2023-10-19T00:27:01;95035.13;;;7.70;97.11
12803;BME280;6465;42.700;23.278;2023-10-19T00:29:31;95036.72;;;7.74;97.04
12803;BME280;6465;42.700;23.278;2023-10-19T00:31:59;95032.31;;;7.75;95.90
12803;BME280;6465;42.700;23.278;2023-10-19T00:34:27;95033.34;;;7.71;95.55
12803;BME280;6465;42.700;23.278;2023-10-19T00:36:54;95034.31;;;7.68;95.85
12803;BME280;6465;42.700;23.278;2023-10-19T00:39:23;95031.97;;;7.62;95.55
12803;BME280;6465;42.700;23.278;2023-10-19T00:41:52;95028.44;;;7.63;95.56
12803;BME280;6465;42.700;23.278;2023-10-19T00:44:23;95029.31;;;7.64;94.38
12803;BME280;6465;42.700;23.278;2023-10-19T00:47:01;95015.72;;;7.55;95.65
12803;BME280;6465;42.700;23.278;2023-10-19T00:49:30;95024.34;;;7.57;97.52
12803;BME280;6465;42.700;23.278;2023-10-19T00:51:59;95022.78;;;7.53;97.63
12803;BME280;6465;42.700;23.278;2023-10-19T00:54:39;95029.00;;;7.49;96.28
12803;BME280;6465;42.700;23.278;2023-10-19T00:57:12;95033.59;;;7.43;95.73
12803;BME280;6465;42.700;23.278;2023-10-19T00:59:41;95016.75;;;7.30;96.71
12803;BME280;6465;42.700;23.278;2023-10-19T01:02:13;95024.50;;;7.31;96.18
12803;BME280;6465;42.700;23.278;2023-10-19T01:04:46;95027.13;;;7.31;95.88
12803;BME280;6465;42.700;23.278;2023-10-19T01:07:21;95036.00;;;7.26;96.53
12803;BME280;6465;42.700;23.278;2023-10-19T01:09:58;95035.16;;;7.25;96.16
12803;BME280;6465;42.700;23.278;2023-10-19T01:12:26;95023.53;;;7.12;95.89
12803;BME280;6465;42.700;23.278;2023-10-19T01:15:07;95033.56;;;7.21;95.34
12803;BME280;6465;42.700;23.278;2023-10-19T01:17:35;95043.38;;;7.14;95.21
12803;BME280;6465;42.700;23.278;2023-10-19T01:20:09;95047.19;;;7.06;96.10
12803;BME280;6465;42.700;23.278;2023-10-19T01:22:54;95032.34;;;7.08;96.09
12803;BME280;6465;42.700;23.278;2023-10-19T01:25:43;95029.72;;;7.08;96.07
12803;BME280;6465;42.700;23.278;2023-10-19T01:28:15;95018.56;;;7.06;100.00
12803;BME280;6465;42.700;23.278;2023-10-19T01:30:42;95030.19;;;7.19;100.00
12803;BME280;6465;42.700;23.278;2023-10-19T01:33:10;95019.78;;;7.19;100.00
12803;BME280;6465;42.700;23.278;2023-10-19T01:35:42;95032.31;;;7.31;100.00
12803;BME280;6465;42.700;23.278;2023-10-19T01:38:28;95036.06;;;7.24;99.67
12803;BME280;6465;42.700;23.278;2023-10-19T01:40:56;95036.91;;;7.25;97.47
12803;BME280;6465;42.700;23.278;2023-10-19T01:43:25;95036.41;;;7.15;96.27
12803;BME280;6465;42.700;23.278;2023-10-19T01:45:56;95040.84;;;7.13;96.05
12803;BME280;6465;42.700;23.278;2023-10-19T01:48:22;95039.91;;;7.14;99.88
12803;BME280;6465;42.700;23.278;2023-10-19T01:50:59;95040.44;;;7.24;100.00
12803;BME280;6465;42.700;23.278;2023-10-19T01:53:25;95038.63;;;7.26;100.00
12803;BME280;6465;42.700;23.278;2023-10-19T01:55:53;95029.81;;;7.28;100.00
12803;BME280;6465;42.700;23.278;2023-10-19T01:58:23;95027.13;;;7.31;100.00
12803;BME280;6465;42.700;23.278;2023-10-19T02:00:52;95034.06;;;7.31;100.00
12803;BME280;6465;42.700;23.278;2023-10-19T02:03:21;95023.84;;;7.26;99.93
12803;BME280;6465;42.700;23.278;2023-10-19T02:05:57;95033.22;;;7.30;99.52
12803;BME280;6465;42.700;23.278;2023-10-19T02:08:24;95028.16;;;7.27;98.46
12803;BME280;6465;42.700;23.278;2023-10-19T02:10:53;95028.44;;;7.20;98.27
12803;BME280;6465;42.700;23.278;2023-10-19T02:13:19;95038.69;;;7.24;96.67
12803;BME280;6465;42.700;23.278;2023-10-19T02:15:46;95032.56;;;7.25;99.76
12803;BME280;6465;42.700;23.278;2023-10-19T02:18:12;95021.78;;;7.12;98.23
12803;BME280;6465;42.700;23.278;2023-10-19T02:20:39;95037.63;;;7.06;96.58
12803;BME280;6465;42.700;23.278;2023-10-19T02:23:07;95037.69;;;7.05;96.49
12803;BME280;6465;42.700;23.278;2023-10-19T02:25:34;95029.88;;;7.05;95.76
12803;BME280;6465;42.700;23.278;2023-10-19T02:28:04;95033.84;;;6.92;96.88
12803;BME280;6465;42.700;23.278;2023-10-19T02:30:32;95034.69;;;6.92;96.16
12803;BME280;6465;42.700;23.278;2023-10-19T02:32:59;95037.44;;;6.88;96.74
12803;BME280;6465;42.700;23.278;2023-10-19T02:35:26;95031.22;;;6.92;97.09
12803;BME280;6465;42.700;23.278;2023-10-19T02:37:53;95027.88;;;6.88;97.03
12803;BME280;6465;42.700;23.278;2023-10-19T02:40:20;95031.59;;;6.81;97.12
12803;BME280;6465;42.700;23.278;2023-10-19T02:42:48;95023.78;;;6.81;97.24
12803;BME280;6465;42.700;23.278;2023-10-19T02:45:20;95023.88;;;6.80;96.76
12803;BME280;6465;42.700;23.278;2023-10-19T02:47:46;95027.47;;;6.75;97.20
12803;BME280;6465;42.700;23.278;2023-10-19T02:50:13;95023.88;;;6.80;96.95
12803;BME280;6465;42.700;23.278;2023-10-19T02:52:41;95028.47;;;6.73;96.60
12803;BME280;6465;42.700;23.278;2023-10-19T02:55:09;95017.75;;;6.57;97.08
12803;BME280;6465;42.700;23.278;2023-10-19T02:57:35;95027.06;;;6.63;97.47
12803;BME280;6465;42.700;23.278;2023-10-19T03:00:05;95032.19;;;6.66;96.37
12803;BME280;6465;42.700;23.278;2023-10-19T03:02:40;95028.25;;;6.54;97.54
12803;BME280;6465;42.700;23.278;2023-10-19T03:05:07;95021.25;;;6.56;97.34
12803;BME280;6465;42.700;23.278;2023-10-19T03:07:40;95026.44;;;6.56;96.52
12803;BME280;6465;42.700;23.278;2023-10-19T03:10:09;95027.34;;;6.55;96.84
12803;BME280;6465;42.700;23.278;2023-10-19T03:12:48;95016.91;;;6.57;95.97
12803;BME280;6465;42.700;23.278;2023-10-19T03:15:16;95020.66;;;6.48;96.57
12803;BME280;6465;42.700;23.278;2023-10-19T03:17:44;95019.59;;;6.54;96.94
12803;BME280;6465;42.700;23.278;2023-10-19T03:20:11;94996.13;;;6.32;96.61
12803;BME280;6465;42.700;23.278;2023-10-19T03:22:37;95023.25;;;6.48;96.50
12803;BME280;6465;42.700;23.278;2023-10-19T03:25:05;95028.38;;;6.51;96.13
12803;BME280;6465;42.700;23.278;2023-10-19T03:28:00;95028.50;;;6.47;97.13
12803;BME280;6465;42.700;23.278;2023-10-19T03:30:33;95031.97;;;6.47;97.57
12803;BME280;6465;42.700;23.278;2023-10-19T03:33:06;95024.16;;;6.47;97.07
12803;BME280;6465;42.700;23.278;2023-10-19T03:35:35;95018.91;;;6.49;97.28
12803;BME280;6465;42.700;23.278;2023-10-19T03:38:03;95027.53;;;6.51;96.45
12803;BME280;6465;42.700;23.278;2023-10-19T03:40:34;95017.38;;;6.43;96.62
12803;BME280;6465;42.700;23.278;2023-10-19T03:43:04;94999.34;;;6.39;96.08
12803;BME280;6465;42.700;23.278;2023-10-19T03:45:43;95009.50;;;6.46;95.84
12803;BME280;6465;42.700;23.278;2023-10-19T03:48:17;95009.59;;;6.43;96.56
12803;BME280;6465;42.700;23.278;2023-10-19T03:50:50;95007.88;;;6.42;97.19
12803;BME280;6465;42.700;23.278;2023-10-19T03:53:18;95004.59;;;6.37;97.94
12803;BME280;6465;42.700;23.278;2023-10-19T03:55:47;95000.13;;;6.41;97.67
12803;BME280;6465;42.700;23.278;2023-10-19T03:58:15;95005.31;;;6.41;96.75
12803;BME280;6465;42.700;23.278;2023-10-19T04:00:42;95000.97;;;6.41;96.39
12803;BME280;6465;42.700;23.278;2023-10-19T04:03:10;95000.97;;;6.41;96.32
12803;BME280;6465;42.700;23.278;2023-10-19T04:05:38;95005.41;;;6.39;96.54
12803;BME280;6465;42.700;23.278;2023-10-19T04:08:07;95002.03;;;6.35;96.61
12803;BME280;6465;42.700;23.278;2023-10-19T04:10:40;95008.91;;;6.38;97.18
12803;BME280;6465;42.700;23.278;2023-10-19T04:13:12;95006.31;;;6.38;96.03
12803;BME280;6465;42.700;23.278;2023-10-19T04:15:39;95009.97;;;6.32;96.19
12803;BME280;6465;42.700;23.278;2023-10-19T04:18:07;95009.00;;;6.35;95.69
12803;BME280;6465;42.700;23.278;2023-10-19T04:20:38;95004.06;;;6.27;95.60
12803;BME280;6465;42.700;23.278;2023-10-19T04:23:20;95009.44;;;6.23;95.93
12803;BME280;6465;42.700;23.278;2023-10-19T04:25:48;95008.41;;;6.27;95.57
12803;BME280;6465;42.700;23.278;2023-10-19T04:28:15;95004.31;;;6.20;96.13
12803;BME280;6465;42.700;23.278;2023-10-19T04:30:45;95004.31;;;6.20;96.13
12803;BME280;6465;42.700;23.278;2023-10-19T04:33:13;95001.84;;;6.17;96.85
12803;BME280;6465;42.700;23.278;2023-10-19T04:35:43;94998.22;;;6.21;96.54
12803;BME280;6465;42.700;23.278;2023-10-19T04:38:11;94991.66;;;6.11;96.57
12803;BME280;6465;42.700;23.278;2023-10-19T04:40:38;94996.81;;;6.12;97.03
12803;BME280;6465;42.700;23.278;2023-10-19T04:43:04;94990.66;;;6.15;97.09
12803;BME280;6465;42.700;23.278;2023-10-19T04:45:31;94992.25;;;6.19;96.39
12803;BME280;6465;42.700;23.278;2023-10-19T04:47:58;94988.03;;;6.15;96.83
12803;BME280;6465;42.700;23.278;2023-10-19T04:50:25;94988.03;;;6.15;97.56
12803;BME280;6465;42.700;23.278;2023-10-19T04:52:53;94981.16;;;6.14;97.94
12803;BME280;6465;42.700;23.278;2023-10-19T04:55:20;94987.16;;;6.16;100.00
12803;BME280;6465;42.700;23.278;2023-10-19T04:57:47;94990.28;;;6.25;98.92
12803;BME280;6465;42.700;23.278;2023-10-19T05:00:14;94958.81;;;6.08;99.46
12803;BME280;6465;42.700;23.278;2023-10-19T05:02:42;94994.63;;;6.25;100.00
12803;BME280;6465;42.700;23.278;2023-10-19T05:05:09;94986.56;;;6.32;100.00
12803;BME280;6465;42.700;23.278;2023-10-19T05:07:36;94995.84;;;6.40;100.00
12803;BME280;6465;42.700;23.278;2023-10-19T05:10:06;94994.69;;;6.47;100.00
12803;BME280;6465;42.700;23.278;2023-10-19T05:12:33;94992.19;;;6.45;100.00
12803;BME280;6465;42.700;23.278;2023-10-19T05:15:00;94993.75;;;6.49;100.00
12803;BME280;6465;42.700;23.278;2023-10-19T05:17:27;94996.13;;;6.55;100.00
12803;BME280;6465;42.700;23.278;2023-10-19T05:19:54;94987.53;;;6.53;100.00
12803;BME280;6465;42.700;23.278;2023-10-19T05:22:21;94985.44;;;6.63;100.00
12803;BME280;6465;42.700;23.278;2023-10-19T05:24:50;94985.97;;;6.72;100.00
12803;BME280;6465;42.700;23.278;2023-10-19T05:27:18;94987.22;;;6.86;100.00
12803;BME280;6465;42.700;23.278;2023-10-19T05:29:45;95004.16;;;6.96;100.00
12803;BME280;6465;42.700;23.278;2023-10-19T05:32:12;95005.41;;;7.09;100.00
12803;BME280;6465;42.700;23.278;2023-10-19T05:34:39;95008.47;;;7.20;100.00
12803;BME280;6465;42.700;23.278;2023-10-19T05:37:06;95010.63;;;7.31;100.00
12803;BME280;6465;42.700;23.278;2023-10-19T05:39:34;95005.25;;;7.35;100.00
12803;BME280;6465;42.700;23.278;2023-10-19T05:42:01;95009.19;;;7.45;100.00
12803;BME280;6465;42.700;23.278;2023-10-19T05:44:31;95009.66;;;7.55;100.00
12803;BME280;6465;42.700;23.278;2023-10-19T05:46:58;95003.59;;;7.54;100.00
12803;BME280;6465;42.700;23.278;2023-10-19T05:49:25;95009.06;;;7.70;100.00
12803;BME280;6465;42.700;23.278;2023-10-19T05:51:53;95019.97;;;7.80;100.00
12803;BME280;6465;42.700;23.278;2023-10-19T05:54:20;95010.59;;;7.96;100.00
12803;BME280;6465;42.700;23.278;2023-10-19T05:56:49;94998.81;;;8.08;100.00
12803;BME280;6465;42.700;23.278;2023-10-19T05:59:17;95007.94;;;8.18;100.00
12803;BME280;6465;42.700;23.278;2023-10-19T06:01:45;95000.59;;;8.27;100.00
12803;BME280;6465;42.700;23.278;2023-10-19T06:04:12;95006.28;;;8.37;100.00
12803;BME280;6465;42.700;23.278;2023-10-19T06:06:40;95018.03;;;8.47;100.00
12803;BME280;6465;42.700;23.278;2023-10-19T06:09:07;95021.97;;;8.56;100.00
12803;BME280;6465;42.700;23.278;2023-10-19T06:11:35;95006.06;;;8.62;100.00
12803;BME280;6465;42.700;23.278;2023-10-19T06:14:07;95016.09;;;8.71;100.00
12803;BME280;6465;42.700;23.278;2023-10-19T06:16:35;95009.34;;;8.86;100.00
12803;BME280;6465;42.700;23.278;2023-10-19T06:19:03;94999.75;;;8.86;100.00
12803;BME280;6465;42.700;23.278;2023-10-19T06:21:30;94997.94;;;8.88;100.00
12803;BME280;6465;42.700;23.278;2023-10-19T06:23:58;94999.91;;;9.02;100.00
12803;BME280;6465;42.700;23.278;2023-10-19T06:26:25;94999.28;;;9.16;100.00
12803;BME280;6465;42.700;23.278;2023-10-19T06:28:52;94996.38;;;9.22;99.52
12803;BME280;6465;42.700;23.278;2023-10-19T06:31:24;94988.44;;;9.23;98.78
12803;BME280;6465;42.700;23.278;2023-10-19T06:33:51;95000.88;;;9.37;98.43
12803;BME280;6465;42.700;23.278;2023-10-19T06:36:19;95002.28;;;9.44;97.74
12803;BME280;6465;42.700;23.278;2023-10-19T06:38:46;95001.16;;;9.49;97.35
12803;BME280;6465;42.700;23.278;2023-10-19T06:41:16;95012.19;;;9.56;97.22
12803;BME280;6465;42.700;23.278;2023-10-19T06:43:43;95015.41;;;9.61;97.49
12803;BME280;6465;42.700;23.278;2023-10-19T06:46:10;95019.38;;;9.70;97.28
12803;BME280;6465;42.700;23.278;2023-10-19T06:48:38;95010.28;;;9.77;96.85
12803;BME280;6465;42.700;23.278;2023-10-19T06:51:05;95008.22;;;9.83;96.85
12803;BME280;6465;42.700;23.278;2023-10-19T06:53:33;95001.63;;;9.93;96.29
12803;BME280;6465;42.700;23.278;2023-10-19T06:56:01;95004.84;;;9.99;95.82
12803;BME280;6465;42.700;23.278;2023-10-19T06:58:29;94984.00;;;9.97;95.28
12803;BME280;6465;42.700;23.278;2023-10-19T07:00:56;94986.41;;;10.02;95.19
12803;BME280;6465;42.700;23.278;2023-10-19T07:03:25;94982.47;;;10.10;95.14
12803;BME280;6465;42.700;23.278;2023-10-19T07:05:54;94989.88;;;10.19;93.63
12803;BME280;6465;42.700;23.278;2023-10-19T07:08:21;94995.72;;;10.07;93.14
12803;BME280;6465;42.700;23.278;2023-10-19T07:10:50;94999.19;;;10.08;93.61
12803;BME280;6465;42.700;23.278;2023-10-19T07:13:17;94998.03;;;10.13;92.78
12803;BME280;6465;42.700;23.278;2023-10-19T07:15:45;94998.88;;;10.14;93.13
12803;BME280;6465;42.700;23.278;2023-10-19T07:18:12;94999.84;;;10.30;92.69
12803;BME280;6465;42.700;23.278;2023-10-19T07:20:40;94995.22;;;10.35;91.02
12803;BME280;6465;42.700;23.278;2023-10-19T07:23:08;94991.34;;;10.42;91.40
12803;BME280;6465;42.700;23.278;2023-10-19T07:25:44;94996.94;;;10.52;91.25
12803;BME280;6465;42.700;23.278;2023-10-19T07:28:15;94993.34;;;10.54;90.60
12803;BME280;6465;42.700;23.278;2023-10-19T07:30:43;95001.97;;;10.56;90.10
12803;BME280;6465;42.700;23.278;2023-10-19T07:33:10;95001.78;;;10.59;90.40
12803;BME280;6465;42.700;23.278;2023-10-19T07:35:42;95010.50;;;10.60;90.68
12803;BME280;6465;42.700;23.278;2023-10-19T07:38:12;95005.50;;;10.55;91.49
12803;BME280;6465;42.700;23.278;2023-10-19T07:40:40;94999.34;;;10.56;92.86
12803;BME280;6465;42.700;23.278;2023-10-19T07:43:07;95008.28;;;10.52;93.66
12803;BME280;6465;42.700;23.278;2023-10-19T07:45:36;95011.59;;;10.56;93.54
12803;BME280;6465;42.700;23.278;2023-10-19T07:48:04;95012.59;;;10.53;93.32
12803;BME280;6465;42.700;23.278;2023-10-19T07:50:32;95011.06;;;10.49;94.51
12803;BME280;6465;42.700;23.278;2023-10-19T07:52:59;95007.34;;;10.53;94.53
12803;BME280;6465;42.700;23.278;2023-10-19T07:55:26;95016.44;;;10.46;93.79
12803;BME280;6465;42.700;23.278;2023-10-19T07:57:54;95008.91;;;10.40;94.14
12803;BME280;6465;42.700;23.278;2023-10-19T08:00:22;95008.91;;;10.40;93.81
12803;BME280;6465;42.700;23.278;2023-10-19T08:02:51;95016.94;;;10.37;94.03
12803;BME280;6465;42.700;23.278;2023-10-19T08:05:19;95007.53;;;10.33;94.48
12803;BME280;6465;42.700;23.278;2023-10-19T08:07:46;95006.91;;;10.28;95.05
12803;BME280;6465;42.700;23.278;2023-10-19T08:10:14;94999.06;;;10.28;94.75
12803;BME280;6465;42.700;23.278;2023-10-19T08:12:43;94992.13;;;10.27;94.40
12803;BME280;6465;42.700;23.278;2023-10-19T08:15:13;94995.13;;;10.37;94.13
12803;BME280;6465;42.700;23.278;2023-10-19T08:17:41;94990.59;;;10.40;94.19
12803;BME280;6465;42.700;23.278;2023-10-19T08:20:11;94996.53;;;10.44;94.22
12803;BME280;6465;42.700;23.278;2023-10-19T08:22:42;94988.41;;;10.48;94.10
12803;BME280;6465;42.700;23.278;2023-10-19T08:25:12;94996.41;;;10.45;94.41
12803;BME280;6465;42.700;23.278;2023-10-19T08:27:40;95005.81;;;10.49;94.29
12803;BME280;6465;42.700;23.278;2023-10-19T08:30:10;94998.41;;;10.57;93.93
12803;BME280;6465;42.700;23.278;2023-10-19T08:32:38;94999.63;;;10.67;91.49
12803;BME280;6465;42.700;23.278;2023-10-19T08:35:06;94988.69;;;10.59;90.58
12803;BME280;6465;42.700;23.278;2023-10-19T08:37:34;94994.53;;;10.64;89.78
12803;BME280;6465;42.700;23.278;2023-10-19T08:40:01;94995.50;;;10.63;91.36
12803;BME280;6465;42.700;23.278;2023-10-19T08:42:29;94988.38;;;10.65;91.31
12803;BME280;6465;42.700;23.278;2023-10-19T08:44:57;94996.44;;;10.78;91.42
12803;BME280;6465;42.700;23.278;2023-10-19T08:47:25;94993.28;;;10.89;91.22
12803;BME280;6465;42.700;23.278;2023-10-19T08:49:53;94997.00;;;11.00;89.26
12803;BME280;6465;42.700;23.278;2023-10-19T08:52:20;94999.06;;;11.11;87.27
12803;BME280;6465;42.700;23.278;2023-10-19T08:54:50;94993.50;;;11.17;86.67
12803;BME280;6465;42.700;23.278;2023-10-19T08:57:17;94995.44;;;11.29;86.20
12803;BME280;6465;42.700;23.278;2023-10-19T08:59:45;94993.25;;;11.37;86.12
12803;BME280;6465;42.700;23.278;2023-10-19T09:02:14;94991.81;;;11.47;86.03
12803;BME280;6465;42.700;23.278;2023-10-19T09:04:42;94988.09;;;11.51;84.16
12803;BME280;6465;42.700;23.278;2023-10-19T09:07:10;94974.88;;;11.69;81.47
12803;BME280;6465;42.700;23.278;2023-10-19T09:09:37;94968.88;;;11.67;81.21
12803;BME280;6465;42.700;23.278;2023-10-19T09:12:07;94969.16;;;11.78;80.97
12803;BME280;6465;42.700;23.278;2023-10-19T09:14:35;94965.06;;;11.88;80.18
12803;BME280;6465;42.700;23.278;2023-10-19T09:17:06;94953.13;;;11.98;80.95
12803;BME280;6465;42.700;23.278;2023-10-19T09:19:41;94942.09;;;12.21;81.93
12803;BME280;6465;42.700;23.278;2023-10-19T09:22:09;94955.25;;;12.36;78.12
12803;BME280;6465;42.700;23.278;2023-10-19T09:24:44;94945.63;;;12.50;78.70
12803;BME280;6465;42.700;23.278;2023-10-19T09:27:13;94943.09;;;12.63;77.24
12803;BME280;6465;42.700;23.278;2023-10-19T09:29:41;94947.63;;;12.75;76.43
12803;BME280;6465;42.700;23.278;2023-10-19T09:32:08;94941.81;;;12.84;76.31
12803;BME280;6465;42.700;23.278;2023-10-19T09:34:36;94928.75;;;12.83;74.73
12803;BME280;6465;42.700;23.278;2023-10-19T09:37:03;94932.78;;;12.88;74.90
12803;BME280;6465;42.700;23.278;2023-10-19T09:39:31;94930.69;;;12.93;75.25
12803;BME280;6465;42.700;23.278;2023-10-19T09:42:01;94921.13;;;13.06;74.44
12803;BME280;6465;42.700;23.278;2023-10-19T09:44:40;94919.00;;;13.13;74.68
12803;BME280;6465;42.700;23.278;2023-10-19T09:47:10;94923.31;;;13.14;74.19
12803;BME280;6465;42.700;23.278;2023-10-19T09:49:39;94926.13;;;13.25;74.44
12803;BME280;6465;42.700;23.278;2023-10-19T09:52:07;94911.88;;;13.42;74.92
12803;BME280;6465;42.700;23.278;2023-10-19T09:54:42;94924.06;;;13.57;73.38
12803;BME280;6465;42.700;23.278;2023-10-19T09:57:16;94924.41;;;13.65;72.34
12803;BME280;6465;42.700;23.278;2023-10-19T09:59:51;94923.06;;;13.72;72.29
12803;BME280;6465;42.700;23.278;2023-10-19T10:02:20;94916.19;;;13.70;72.11
12803;BME280;6465;42.700;23.278;2023-10-19T10:04:47;94906.97;;;13.77;71.82
12803;BME280;6465;42.700;23.278;2023-10-19T10:07:15;94902.19;;;13.69;72.17
12803;BME280;6465;42.700;23.278;2023-10-19T10:09:42;94892.84;;;13.65;72.50
12803;BME280;6465;42.700;23.278;2023-10-19T10:12:28;94892.44;;;13.71;72.37
12803;BME280;6465;42.700;23.278;2023-10-19T10:15:00;94902.66;;;13.76;73.15
12803;BME280;6465;42.700;23.278;2023-10-19T10:17:29;94895.19;;;13.82;72.24
12803;BME280;6465;42.700;23.278;2023-10-19T10:20:30;94888.13;;;13.83;71.77
12803;BME280;6465;42.700;23.278;2023-10-19T10:23:17;94876.03;;;13.80;72.53
12803;BME280;6465;42.700;23.278;2023-10-19T10:25:46;94877.09;;;13.91;72.05
12803;BME280;6465;42.700;23.278;2023-10-19T10:28:14;94871.75;;;13.92;72.64
12803;BME280;6465;42.700;23.278;2023-10-19T10:31:10;94871.75;;;14.05;71.34
12803;BME280;6465;42.700;23.278;2023-10-19T10:33:41;94864.28;;;13.99;71.77
12803;BME280;6465;42.700;23.278;2023-10-19T10:36:10;94863.88;;;14.05;71.84
12803;BME280;6465;42.700;23.278;2023-10-19T10:38:37;94830.03;;;13.86;71.98
12803;BME280;6465;42.700;23.278;2023-10-19T10:41:04;94841.19;;;14.02;71.61
12803;BME280;6465;42.700;23.278;2023-10-19T10:43:48;94827.19;;;14.02;71.94
12803;BME280;6465;42.700;23.278;2023-10-19T10:46:17;94827.63;;;14.08;71.68
12803;BME280;6465;42.700;23.278;2023-10-19T10:48:44;94831.09;;;14.09;71.52
12803;BME280;6465;42.700;23.278;2023-10-19T10:51:18;94809.84;;;14.12;71.39
12803;BME280;6465;42.700;23.278;2023-10-19T10:53:49;94812.25;;;14.15;71.12
12803;BME280;6465;42.700;23.278;2023-10-19T10:56:17;94813.31;;;14.25;70.96
12803;BME280;6465;42.700;23.278;2023-10-19T10:58:44;94807.41;;;14.34;70.57
12803;BME280;6465;42.700;23.278;2023-10-19T11:01:11;94801.94;;;14.50;69.90
12803;BME280;6465;42.700;23.278;2023-10-19T11:03:41;94785.81;;;14.54;69.89
12803;BME280;6465;42.700;23.278;2023-10-19T11:06:09;94782.00;;;14.58;70.29
12803;BME280;6465;42.700;23.278;2023-10-19T11:08:37;94781.66;;;14.63;70.27
12803;BME280;6465;42.700;23.278;2023-10-19T11:11:06;94778.16;;;14.88;68.07
12803;BME280;6465;42.700;23.278;2023-10-19T11:13:36;94769.00;;;14.81;68.54
12803;BME280;6465;42.700;23.278;2023-10-19T11:16:05;94785.16;;;15.00;67.18
12803;BME280;6465;42.700;23.278;2023-10-19T11:18:37;94774.63;;;15.00;67.60
12803;BME280;6465;42.700;23.278;2023-10-19T11:21:08;94776.50;;;14.98;67.94
12803;BME280;6465;42.700;23.278;2023-10-19T11:23:43;94757.09;;;14.99;67.35
12803;BME280;6465;42.700;23.278;2023-10-19T11:26:11;94756.22;;;15.11;66.91
12803;BME280;6465;42.700;23.278;2023-10-19T11:28:39;94750.75;;;15.25;66.24
12803;BME280;6465;42.700;23.278;2023-10-19T11:31:17;94747.09;;;15.39;66.06
12803;BME280;6465;42.700;23.278;2023-10-19T11:33:45;94727.50;;;15.30;66.73
12803;BME280;6465;42.700;23.278;2023-10-19T11:36:16;94738.38;;;15.50;66.15
12803;BME280;6465;42.700;23.278;2023-10-19T11:38:45;94736.53;;;15.63;65.95
12803;BME280;6465;42.700;23.278;2023-10-19T11:41:13;94741.13;;;15.72;65.55
12803;BME280;6465;42.700;23.278;2023-10-19T11:43:41;94719.03;;;15.62;66.12
12803;BME280;6465;42.700;23.278;2023-10-19T11:46:09;94723.22;;;15.64;66.42
12803;BME280;6465;42.700;23.278;2023-10-19T11:48:37;94728.59;;;15.63;66.89
12803;BME280;6465;42.700;23.278;2023-10-19T11:51:05;94725.00;;;15.64;67.30
12803;BME280;6465;42.700;23.278;2023-10-19T11:53:35;94719.41;;;15.68;66.83
12803;BME280;6465;42.700;23.278;2023-10-19T11:56:03;94727.69;;;15.75;66.36
12803;BME280;6465;42.700;23.278;2023-10-19T11:58:31;94721.84;;;15.82;65.62
12803;BME280;6465;42.700;23.278;2023-10-19T12:01:00;94718.72;;;15.89;65.11
12803;BME280;6465;42.700;23.278;2023-10-19T12:03:27;94721.25;;;16.01;64.84
12803;BME280;6465;42.700;23.278;2023-10-19T12:05:54;94719.09;;;16.06;64.56
12803;BME280;6465;42.700;23.278;2023-10-19T12:08:22;94710.69;;;16.12;64.30
12803;BME280;6465;42.700;23.278;2023-10-19T12:10:51;94711.53;;;16.13;64.52
12803;BME280;6465;42.700;23.278;2023-10-19T12:13:17;94715.50;;;16.07;64.99
12803;BME280;6465;42.700;23.278;2023-10-19T12:15:44;94699.16;;;16.13;65.13
12803;BME280;6465;42.700;23.278;2023-10-19T12:18:20;94685.00;;;16.14;65.20
12803;BME280;6465;42.700;23.278;2023-10-19T12:20:47;94693.50;;;16.18;65.04
12803;BME280;6465;42.700;23.278;2023-10-19T12:23:14;94685.22;;;16.34;63.93
12803;BME280;6465;42.700;23.278;2023-10-19T12:25:41;94697.44;;;16.57;63.60
12803;BME280;6465;42.700;23.278;2023-10-19T12:28:10;94685.22;;;16.56;64.08
12803;BME280;6465;42.700;23.278;2023-10-19T12:30:41;94685.69;;;16.61;63.54
12803;BME280;6465;42.700;23.278;2023-10-19T12:33:08;94686.28;;;16.64;63.27
12803;BME280;6465;42.700;23.278;2023-10-19T12:35:38;94683.41;;;16.68;62.88
12803;BME280;6465;42.700;23.278;2023-10-19T12:38:19;94689.53;;;16.68;63.32
12803;BME280;6465;42.700;23.278;2023-10-19T12:40:47;94685.94;;;16.69;63.54
12803;BME280;6465;42.700;23.278;2023-10-19T12:43:18;94678.69;;;16.71;63.53
12803;BME280;6465;42.700;23.278;2023-10-19T12:45:45;94674.00;;;16.75;63.39
12803;BME280;6465;42.700;23.278;2023-10-19T12:48:16;94671.25;;;16.76;63.43
12803;BME280;6465;42.700;23.278;2023-10-19T12:50:43;94659.34;;;16.82;62.76
12803;BME280;6465;42.700;23.278;2023-10-19T12:53:10;94667.09;;;16.94;62.38
12803;BME280;6465;42.700;23.278;2023-10-19T12:55:37;94673.13;;;16.96;62.64
12803;BME280;6465;42.700;23.278;2023-10-19T12:58:04;94667.56;;;16.99;62.72
12803;BME280;6465;42.700;23.278;2023-10-19T13:00:36;94667.69;;;16.98;62.42
12803;BME280;6465;42.700;23.278;2023-10-19T13:03:09;94670.09;;;17.01;62.28
12803;BME280;6465;42.700;23.278;2023-10-19T13:05:39;94653.69;;;17.07;62.47
12803;BME280;6465;42.700;23.278;2023-10-19T13:08:07;94649.91;;;17.21;61.73
12803;BME280;6465;42.700;23.278;2023-10-19T13:10:35;94648.00;;;17.23;61.81
12803;BME280;6465;42.700;23.278;2023-10-19T13:13:04;94641.47;;;17.27;61.81
12803;BME280;6465;42.700;23.278;2023-10-19T13:15:31;94650.56;;;17.34;61.73
12803;BME280;6465;42.700;23.278;2023-10-19T13:18:02;94653.81;;;17.37;61.65